WUK525 EGGW-LUKK
Flight info
| Callsign | WUK525 |
|---|---|
| Flight time | N/A |
| Altitude | 33000 |
| Route | MATCH Q295 BRAIN M197 REDFA DCT TACHA DCT OTMEC DCT OMELO DCT BILNA DCT ABULI DCT KARIL DCT SAT DCT SOMET DCT BUZZE DCT UNIRA |
| Aircraft | A321/M-SDE3FGHIRWY/LB1 |
Departure
| Time | 2026-05-06 11:10 |
|---|---|
| Airport | London Luton Airport (EGGW) |
Arrival
| Time | N/A |
|---|---|
| Airport | Chişinău International Airport (LUKK) |
| Time | Latitude | Longitude | Altitude | Speed | Heading |
|---|---|---|---|---|---|
| 2026-05-06 10:47 | 51.87945 | -0.37382 | 508 ft | 0 kts | 162° |
| 2026-05-06 10:59 | 51.87969 | -0.37393 | 508 ft | 3 kts | 165° |
| 2026-05-06 10:59 | 51.87994 | -0.37407 | 508 ft | 3 kts | 144° |
| 2026-05-06 11:00 | 51.88001 | -0.37411 | 508 ft | 3 kts | 117° |
| 2026-05-06 11:00 | 51.88007 | -0.37376 | 508 ft | 3 kts | 68° |
| 2026-05-06 11:00 | 51.88017 | -0.37336 | 508 ft | 3 kts | 71° |
| 2026-05-06 11:00 | 51.88024 | -0.37300 | 508 ft | 3 kts | 72° |
| 2026-05-06 11:01 | 51.88029 | -0.37275 | 508 ft | 0 kts | 72° |
| 2026-05-06 11:03 | 51.88030 | -0.37270 | 508 ft | 1 kts | 72° |
| 2026-05-06 11:03 | 51.88034 | -0.37251 | 508 ft | 3 kts | 72° |
| 2026-05-06 11:03 | 51.88043 | -0.37199 | 508 ft | 7 kts | 82° |
| 2026-05-06 11:04 | 51.88008 | -0.37129 | 508 ft | 11 kts | 157° |
| 2026-05-06 11:04 | 51.87925 | -0.37080 | 509 ft | 15 kts | 163° |
| 2026-05-06 11:04 | 51.87821 | -0.37027 | 513 ft | 16 kts | 162° |
| 2026-05-06 11:04 | 51.87719 | -0.36973 | 521 ft | 15 kts | 161° |
| 2026-05-06 11:05 | 51.87628 | -0.36986 | 522 ft | 16 kts | 239° |
| 2026-05-06 11:05 | 51.87594 | -0.37175 | 522 ft | 20 kts | 254° |
| 2026-05-06 11:05 | 51.87576 | -0.37333 | 522 ft | 11 kts | 277° |
| 2026-05-06 11:05 | 51.87562 | -0.37458 | 522 ft | 14 kts | 216° |
| 2026-05-06 11:06 | 51.87495 | -0.37582 | 522 ft | 16 kts | 255° |
| 2026-05-06 11:06 | 51.87464 | -0.37778 | 523 ft | 20 kts | 256° |
| 2026-05-06 11:06 | 51.87415 | -0.38007 | 524 ft | 16 kts | 239° |
| 2026-05-06 11:06 | 51.87359 | -0.38073 | 523 ft | 0 kts | 207° |
| 2026-05-06 11:08 | 51.87353 | -0.38078 | 522 ft | 4 kts | 207° |
| 2026-05-06 11:08 | 51.87309 | -0.38104 | 522 ft | 9 kts | 194° |
| 2026-05-06 11:08 | 51.87244 | -0.38095 | 524 ft | 8 kts | 126° |
| 2026-05-06 11:09 | 51.87259 | -0.38017 | 523 ft | 10 kts | 65° |
| 2026-05-06 11:09 | 51.87265 | -0.37988 | 524 ft | 0 kts | 74° |
| 2026-05-06 11:09 | 51.87265 | -0.37986 | 524 ft | 6 kts | 74° |
| 2026-05-06 11:09 | 51.87355 | -0.37463 | 522 ft | 88 kts | 75° |
| 2026-05-06 11:10 | 51.87572 | -0.36151 | 530 ft | 149 kts | 76° |
| 2026-05-06 11:10 | 51.87846 | -0.34421 | 1033 ft | 165 kts | 72° |
| 2026-05-06 11:10 | 51.88172 | -0.32496 | 1545 ft | 190 kts | 72° |
| 2026-05-06 11:10 | 51.88562 | -0.30301 | 2107 ft | 216 kts | 72° |
| 2026-05-06 11:11 | 51.89001 | -0.27839 | 2765 ft | 240 kts | 72° |
| 2026-05-06 11:11 | 51.89461 | -0.25165 | 3383 ft | 251 kts | 76° |
| 2026-05-06 11:11 | 51.89371 | -0.22343 | 4024 ft | 259 kts | 111° |
| 2026-05-06 11:11 | 51.88254 | -0.20068 | 4716 ft | 266 kts | 144° |
| 2026-05-06 11:12 | 51.86619 | -0.18603 | 5382 ft | 271 kts | 153° |
| 2026-05-06 11:12 | 51.84883 | -0.17382 | 6048 ft | 274 kts | 156° |
| 2026-05-06 11:12 | 51.83098 | -0.16224 | 6722 ft | 277 kts | 157° |
| 2026-05-06 11:12 | 51.81301 | -0.15053 | 7365 ft | 280 kts | 157° |
| 2026-05-06 11:13 | 51.79490 | -0.13837 | 8005 ft | 284 kts | 156° |
| 2026-05-06 11:13 | 51.77673 | -0.12551 | 8630 ft | 287 kts | 151° |
| 2026-05-06 11:13 | 51.76154 | -0.10486 | 9200 ft | 289 kts | 123° |
| 2026-05-06 11:13 | 51.75396 | -0.07505 | 9774 ft | 290 kts | 96° |
| 2026-05-06 11:14 | 51.75475 | -0.04297 | 10232 ft | 296 kts | 81° |
| 2026-05-06 11:14 | 51.75762 | -0.00889 | 10346 ft | 316 kts | 81° |
| 2026-05-06 11:14 | 51.76074 | 0.02732 | 10452 ft | 336 kts | 81° |
| 2026-05-06 11:14 | 51.76404 | 0.06571 | 10578 ft | 354 kts | 81° |
| 2026-05-06 11:15 | 51.76748 | 0.10595 | 10699 ft | 371 kts | 81° |
| 2026-05-06 11:15 | 51.77099 | 0.14799 | 11017 ft | 381 kts | 82° |
| 2026-05-06 11:15 | 51.77445 | 0.19070 | 11545 ft | 385 kts | 82° |
| 2026-05-06 11:15 | 51.77924 | 0.23343 | 12071 ft | 388 kts | 75° |
| 2026-05-06 11:16 | 51.78634 | 0.27565 | 12628 ft | 391 kts | 74° |
| 2026-05-06 11:16 | 51.79367 | 0.31814 | 13181 ft | 394 kts | 74° |
| 2026-05-06 11:16 | 51.80110 | 0.36095 | 13728 ft | 398 kts | 73° |
| 2026-05-06 11:16 | 51.80860 | 0.40420 | 14216 ft | 401 kts | 74° |
| 2026-05-06 11:17 | 51.81613 | 0.44773 | 14710 ft | 404 kts | 74° |
| 2026-05-06 11:17 | 51.82369 | 0.49168 | 15212 ft | 407 kts | 74° |
| 2026-05-06 11:17 | 51.83127 | 0.53606 | 15713 ft | 411 kts | 74° |
| 2026-05-06 11:17 | 51.83885 | 0.58070 | 16195 ft | 414 kts | 75° |
| 2026-05-06 11:18 | 51.84641 | 0.62526 | 16683 ft | 417 kts | 75° |
| 2026-05-06 11:18 | 51.85409 | 0.67071 | 17157 ft | 420 kts | 75° |
| 2026-05-06 11:18 | 51.86178 | 0.71640 | 17612 ft | 423 kts | 75° |
| 2026-05-06 11:18 | 51.86951 | 0.76255 | 18059 ft | 426 kts | 75° |
| 2026-05-06 11:19 | 51.87728 | 0.80898 | 18470 ft | 429 kts | 75° |
| 2026-05-06 11:19 | 51.88510 | 0.85568 | 18852 ft | 431 kts | 75° |
| 2026-05-06 11:19 | 51.89297 | 0.90279 | 19232 ft | 434 kts | 75° |
| 2026-05-06 11:19 | 51.90088 | 0.95012 | 19598 ft | 437 kts | 75° |
| 2026-05-06 11:20 | 51.90880 | 0.99779 | 19957 ft | 440 kts | 76° |
| 2026-05-06 11:20 | 51.91672 | 1.04580 | 20317 ft | 443 kts | 76° |
| 2026-05-06 11:20 | 51.92470 | 1.09414 | 20688 ft | 445 kts | 76° |
| 2026-05-06 11:20 | 51.93269 | 1.14273 | 21046 ft | 448 kts | 76° |
| 2026-05-06 11:21 | 51.94071 | 1.19161 | 21409 ft | 450 kts | 76° |
| 2026-05-06 11:21 | 51.94874 | 1.24080 | 21766 ft | 452 kts | 76° |
| 2026-05-06 11:21 | 51.95679 | 1.29025 | 22118 ft | 455 kts | 76° |
| 2026-05-06 11:21 | 51.96487 | 1.33999 | 22460 ft | 457 kts | 76° |
| 2026-05-06 11:22 | 51.97296 | 1.39006 | 22808 ft | 460 kts | 76° |
| 2026-05-06 11:22 | 51.98109 | 1.44041 | 23142 ft | 462 kts | 76° |
| 2026-05-06 11:22 | 51.98924 | 1.49097 | 23467 ft | 465 kts | 76° |
| 2026-05-06 11:22 | 51.99739 | 1.54180 | 23747 ft | 467 kts | 76° |
| 2026-05-06 11:23 | 52.00549 | 1.59228 | 24010 ft | 469 kts | 76° |
| 2026-05-06 11:23 | 52.01382 | 1.64428 | 24282 ft | 471 kts | 76° |
| 2026-05-06 11:23 | 52.02206 | 1.69585 | 24562 ft | 473 kts | 76° |
| 2026-05-06 11:23 | 52.03021 | 1.74708 | 24839 ft | 475 kts | 77° |
| 2026-05-06 11:24 | 52.03843 | 1.79922 | 25123 ft | 477 kts | 77° |
| 2026-05-06 11:24 | 52.04663 | 1.85158 | 25412 ft | 479 kts | 77° |
| 2026-05-06 11:24 | 52.05486 | 1.90403 | 25724 ft | 480 kts | 77° |
| 2026-05-06 11:24 | 52.06308 | 1.95648 | 26134 ft | 479 kts | 77° |
| 2026-05-06 11:25 | 52.07127 | 2.00887 | 26541 ft | 478 kts | 77° |
| 2026-05-06 11:25 | 52.07941 | 2.06116 | 26939 ft | 477 kts | 77° |
| 2026-05-06 11:25 | 52.08746 | 2.11332 | 27331 ft | 476 kts | 77° |
| 2026-05-06 11:25 | 52.09550 | 2.16546 | 27719 ft | 475 kts | 77° |
| 2026-05-06 11:26 | 52.10357 | 2.21765 | 28111 ft | 475 kts | 77° |
| 2026-05-06 11:26 | 52.11158 | 2.26966 | 28498 ft | 474 kts | 77° |
| 2026-05-06 11:26 | 52.11957 | 2.32173 | 28905 ft | 473 kts | 77° |
| 2026-05-06 11:26 | 52.12750 | 2.37357 | 29284 ft | 472 kts | 77° |
| 2026-05-06 11:27 | 52.13542 | 2.42552 | 29676 ft | 472 kts | 78° |
| 2026-05-06 11:27 | 52.14328 | 2.47740 | 30039 ft | 471 kts | 78° |
| 2026-05-06 11:27 | 52.15108 | 2.52912 | 30360 ft | 470 kts | 78° |
| 2026-05-06 11:27 | 52.15886 | 2.58084 | 30691 ft | 469 kts | 78° |
| 2026-05-06 11:28 | 52.16648 | 2.63175 | 31003 ft | 468 kts | 78° |
| 2026-05-06 11:28 | 52.17416 | 2.68319 | 31327 ft | 467 kts | 78° |
| 2026-05-06 11:28 | 52.18184 | 2.73463 | 31644 ft | 467 kts | 78° |
| 2026-05-06 11:28 | 52.18948 | 2.78599 | 31963 ft | 466 kts | 78° |
| 2026-05-06 11:29 | 52.19709 | 2.83727 | 32272 ft | 465 kts | 78° |
| 2026-05-06 11:29 | 52.20467 | 2.88844 | 32580 ft | 464 kts | 77° |
| 2026-05-06 11:29 | 52.21219 | 2.93950 | 32875 ft | 464 kts | 77° |
| 2026-05-06 11:30 | 52.22725 | 3.04219 | 32945 ft | 466 kts | 78° |
| 2026-05-06 11:30 | 52.24221 | 3.14518 | 32947 ft | 466 kts | 78° |
| 2026-05-06 11:31 | 52.25320 | 3.24899 | 32940 ft | 464 kts | 90° |
| 2026-05-06 11:31 | 52.24889 | 3.35356 | 32946 ft | 462 kts | 98° |
| 2026-05-06 11:32 | 52.24232 | 3.45780 | 32940 ft | 462 kts | 97° |
| 2026-05-06 11:32 | 52.23580 | 3.56139 | 32940 ft | 462 kts | 98° |
| 2026-05-06 11:33 | 52.22910 | 3.66584 | 32938 ft | 462 kts | 98° |
| 2026-05-06 11:33 | 52.22232 | 3.77008 | 32938 ft | 462 kts | 98° |
| 2026-05-06 11:34 | 52.21539 | 3.87419 | 32935 ft | 462 kts | 98° |
| 2026-05-06 11:34 | 52.20835 | 3.97842 | 32941 ft | 462 kts | 98° |
| 2026-05-06 11:35 | 52.20119 | 4.08266 | 32929 ft | 462 kts | 98° |
| 2026-05-06 11:35 | 52.19398 | 4.18672 | 32932 ft | 462 kts | 98° |
| 2026-05-06 11:36 | 52.18664 | 4.29083 | 32911 ft | 462 kts | 98° |
| 2026-05-06 11:36 | 52.17921 | 4.39477 | 32913 ft | 462 kts | 98° |
| 2026-05-06 11:37 | 52.17173 | 4.49861 | 32906 ft | 461 kts | 98° |
| 2026-05-06 11:37 | 52.16413 | 4.60249 | 32907 ft | 461 kts | 98° |
| 2026-05-06 11:38 | 52.15648 | 4.70620 | 32905 ft | 461 kts | 98° |
| 2026-05-06 11:38 | 52.15006 | 4.79242 | 32905 ft | 461 kts | 99° |
| 2026-05-06 11:39 | 52.14099 | 4.91296 | 32904 ft | 461 kts | 99° |
| 2026-05-06 11:39 | 52.13444 | 4.99920 | 32862 ft | 452 kts | 99° |
| 2026-05-06 11:40 | 52.12670 | 5.09961 | 32856 ft | 450 kts | 98° |
| 2026-05-06 11:40 | 52.11872 | 5.20073 | 32859 ft | 451 kts | 99° |
| 2026-05-06 11:41 | 52.11062 | 5.30210 | 32867 ft | 452 kts | 99° |
| 2026-05-06 11:41 | 52.10241 | 5.40355 | 32875 ft | 452 kts | 99° |
| 2026-05-06 11:42 | 52.09419 | 5.50493 | 32896 ft | 452 kts | 99° |
| 2026-05-06 11:42 | 52.08600 | 5.60631 | 32894 ft | 452 kts | 99° |
| 2026-05-06 11:43 | 52.07772 | 5.70762 | 32904 ft | 452 kts | 99° |
| 2026-05-06 11:43 | 52.06930 | 5.80802 | 32905 ft | 451 kts | 99° |
| 2026-05-06 11:44 | 52.05361 | 5.95882 | 32901 ft | 451 kts | 102° |
| 2026-05-06 11:44 | 52.04170 | 6.05879 | 32901 ft | 451 kts | 102° |
| 2026-05-06 11:45 | 52.02993 | 6.15880 | 32887 ft | 451 kts | 102° |
| 2026-05-06 11:45 | 52.01829 | 6.25871 | 32873 ft | 451 kts | 102° |
| 2026-05-06 11:46 | 52.00666 | 6.35894 | 32868 ft | 452 kts | 102° |
| 2026-05-06 11:46 | 51.99492 | 6.45929 | 32859 ft | 452 kts | 102° |
| 2026-05-06 11:47 | 51.98308 | 6.55948 | 32855 ft | 453 kts | 102° |
| 2026-05-06 11:47 | 51.97110 | 6.65985 | 32856 ft | 453 kts | 102° |
| 2026-05-06 11:48 | 51.95907 | 6.76005 | 32854 ft | 453 kts | 102° |
| 2026-05-06 11:48 | 51.94696 | 6.85982 | 32850 ft | 454 kts | 102° |
| 2026-05-06 11:49 | 51.93468 | 6.96015 | 32856 ft | 454 kts | 103° |
| 2026-05-06 11:49 | 51.92237 | 7.06050 | 32854 ft | 455 kts | 103° |
| 2026-05-06 11:50 | 51.90991 | 7.16097 | 32858 ft | 454 kts | 103° |
| 2026-05-06 11:50 | 51.89736 | 7.26120 | 32847 ft | 454 kts | 103° |
| 2026-05-06 11:51 | 51.88475 | 7.36132 | 32839 ft | 454 kts | 103° |
| 2026-05-06 11:51 | 51.87202 | 7.46145 | 32831 ft | 454 kts | 103° |
| 2026-05-06 11:52 | 51.85923 | 7.56168 | 32840 ft | 455 kts | 103° |
| 2026-05-06 11:52 | 51.84632 | 7.66204 | 32838 ft | 456 kts | 103° |
| 2026-05-06 11:53 | 51.83335 | 7.76248 | 32835 ft | 456 kts | 103° |
| 2026-05-06 11:53 | 51.82026 | 7.86304 | 32823 ft | 456 kts | 103° |
| 2026-05-06 11:54 | 51.80707 | 7.96342 | 32813 ft | 457 kts | 103° |
| 2026-05-06 11:54 | 51.79386 | 8.06324 | 32812 ft | 458 kts | 103° |
| 2026-05-06 11:55 | 51.78040 | 8.16406 | 32824 ft | 459 kts | 103° |
| 2026-05-06 11:55 | 51.76684 | 8.26484 | 32812 ft | 459 kts | 104° |
| 2026-05-06 11:56 | 51.75328 | 8.36571 | 32808 ft | 460 kts | 104° |
| 2026-05-06 11:56 | 51.73961 | 8.46659 | 32807 ft | 461 kts | 104° |
| 2026-05-06 11:57 | 51.72577 | 8.56754 | 32804 ft | 461 kts | 104° |
| 2026-05-06 11:57 | 51.71177 | 8.66849 | 32805 ft | 461 kts | 104° |
| 2026-05-06 11:58 | 51.69768 | 8.76957 | 32808 ft | 462 kts | 104° |
| 2026-05-06 11:58 | 51.68363 | 8.87070 | 32807 ft | 463 kts | 104° |
| 2026-05-06 11:59 | 51.66944 | 8.97180 | 32808 ft | 463 kts | 105° |
| 2026-05-06 11:59 | 51.65503 | 9.07299 | 32803 ft | 463 kts | 105° |
| 2026-05-06 12:00 | 51.64059 | 9.17409 | 32795 ft | 464 kts | 105° |
| 2026-05-06 12:00 | 51.62608 | 9.27535 | 32791 ft | 464 kts | 105° |
| 2026-05-06 12:01 | 51.61152 | 9.37587 | 32793 ft | 465 kts | 106° |
| 2026-05-06 12:01 | 51.59679 | 9.47702 | 32789 ft | 465 kts | 106° |
| 2026-05-06 12:02 | 51.58200 | 9.57833 | 32791 ft | 465 kts | 106° |
| 2026-05-06 12:02 | 51.56711 | 9.67954 | 32796 ft | 465 kts | 107° |
| 2026-05-06 12:03 | 51.55209 | 9.78072 | 32791 ft | 466 kts | 107° |
| 2026-05-06 12:03 | 51.53697 | 9.88195 | 32795 ft | 466 kts | 107° |
| 2026-05-06 12:04 | 51.52176 | 9.98311 | 32790 ft | 466 kts | 107° |
| 2026-05-06 12:04 | 51.50646 | 10.08441 | 32785 ft | 467 kts | 107° |
| 2026-05-06 12:05 | 51.49108 | 10.18569 | 32774 ft | 466 kts | 108° |
| 2026-05-06 12:05 | 51.47560 | 10.28680 | 32771 ft | 467 kts | 108° |
| 2026-05-06 12:06 | 51.46008 | 10.38739 | 32772 ft | 468 kts | 108° |
| 2026-05-06 12:06 | 51.44432 | 10.48872 | 32770 ft | 469 kts | 108° |
| 2026-05-06 12:07 | 51.42852 | 10.59018 | 32762 ft | 469 kts | 108° |
| 2026-05-06 12:07 | 51.41262 | 10.69159 | 32760 ft | 470 kts | 109° |
| 2026-05-06 12:08 | 51.39653 | 10.79316 | 32760 ft | 470 kts | 109° |
| 2026-05-06 12:08 | 51.38038 | 10.89475 | 32755 ft | 471 kts | 109° |
| 2026-05-06 12:09 | 51.36410 | 10.99627 | 32758 ft | 471 kts | 109° |
| 2026-05-06 12:09 | 51.34776 | 11.09792 | 32758 ft | 472 kts | 109° |
| 2026-05-06 12:10 | 51.33133 | 11.19954 | 32763 ft | 473 kts | 109° |
| 2026-05-06 12:10 | 51.31469 | 11.30148 | 32764 ft | 473 kts | 109° |
| 2026-05-06 12:11 | 51.29810 | 11.40274 | 32771 ft | 474 kts | 109° |
| 2026-05-06 12:11 | 51.28131 | 11.50458 | 32762 ft | 475 kts | 109° |
| 2026-05-06 12:12 | 51.26435 | 11.60665 | 32757 ft | 475 kts | 109° |
| 2026-05-06 12:12 | 51.24734 | 11.70867 | 32767 ft | 476 kts | 109° |
| 2026-05-06 12:13 | 51.23028 | 11.81083 | 32767 ft | 477 kts | 110° |
| 2026-05-06 12:13 | 51.21298 | 11.91304 | 32763 ft | 477 kts | 110° |
| 2026-05-06 12:14 | 51.19560 | 12.01523 | 32760 ft | 478 kts | 110° |
| 2026-05-06 12:14 | 51.17811 | 12.11773 | 32764 ft | 479 kts | 110° |
| 2026-05-06 12:15 | 51.16051 | 12.22006 | 32760 ft | 479 kts | 110° |
| 2026-05-06 12:15 | 51.14282 | 12.32249 | 32770 ft | 480 kts | 110° |
| 2026-05-06 12:16 | 51.12496 | 12.42500 | 32774 ft | 480 kts | 111° |
| 2026-05-06 12:16 | 51.10712 | 12.52673 | 32777 ft | 480 kts | 111° |
| 2026-05-06 12:17 | 51.08908 | 12.62918 | 32778 ft | 481 kts | 111° |
| 2026-05-06 12:17 | 51.07094 | 12.73167 | 32778 ft | 481 kts | 111° |
| 2026-05-06 12:18 | 51.05280 | 12.83398 | 32772 ft | 481 kts | 111° |
| 2026-05-06 12:18 | 51.03451 | 12.93632 | 32770 ft | 481 kts | 111° |
| 2026-05-06 12:19 | 51.01612 | 13.03851 | 32772 ft | 481 kts | 111° |
| 2026-05-06 12:19 | 50.99778 | 13.13999 | 32774 ft | 481 kts | 112° |
| 2026-05-06 12:20 | 50.97924 | 13.24208 | 32775 ft | 481 kts | 112° |
| 2026-05-06 12:20 | 50.96056 | 13.34399 | 32775 ft | 481 kts | 112° |
| 2026-05-06 12:21 | 50.94177 | 13.44597 | 32778 ft | 482 kts | 112° |
| 2026-05-06 12:21 | 50.92290 | 13.54789 | 32778 ft | 481 kts | 112° |
| 2026-05-06 12:22 | 50.90400 | 13.64969 | 32780 ft | 482 kts | 112° |
| 2026-05-06 12:22 | 50.88503 | 13.75153 | 32784 ft | 482 kts | 112° |
| 2026-05-06 12:23 | 50.86590 | 13.85315 | 32788 ft | 482 kts | 112° |
| 2026-05-06 12:23 | 50.84662 | 13.95465 | 32788 ft | 482 kts | 112° |
| 2026-05-06 12:24 | 50.82262 | 14.05239 | 32788 ft | 474 kts | 121° |
| 2026-05-06 12:24 | 50.79449 | 14.14670 | 32788 ft | 474 kts | 121° |
| 2026-05-06 12:25 | 50.76631 | 14.24099 | 32790 ft | 474 kts | 121° |
| 2026-05-06 12:25 | 50.73810 | 14.33514 | 32789 ft | 474 kts | 121° |
| 2026-05-06 12:26 | 50.70980 | 14.42933 | 32792 ft | 475 kts | 121° |
| 2026-05-06 12:26 | 50.68138 | 14.52317 | 32795 ft | 474 kts | 122° |
| 2026-05-06 12:27 | 50.65280 | 14.61696 | 32795 ft | 474 kts | 122° |
| 2026-05-06 12:27 | 50.62910 | 14.69476 | 32796 ft | 474 kts | 122° |
| 2026-05-06 12:28 | 50.60049 | 14.78851 | 32795 ft | 474 kts | 122° |
| 2026-05-06 12:28 | 50.57181 | 14.88198 | 32808 ft | 474 kts | 122° |
| 2026-05-06 12:29 | 50.54302 | 14.97535 | 32808 ft | 474 kts | 122° |
| 2026-05-06 12:29 | 50.51418 | 15.06856 | 32811 ft | 474 kts | 122° |
| 2026-05-06 12:30 | 50.48529 | 15.16172 | 32814 ft | 474 kts | 122° |
| 2026-05-06 12:30 | 50.45657 | 15.25400 | 32815 ft | 473 kts | 122° |
| 2026-05-06 12:31 | 50.42759 | 15.34685 | 32820 ft | 473 kts | 122° |
| 2026-05-06 12:31 | 50.39854 | 15.43937 | 32826 ft | 473 kts | 122° |
| 2026-05-06 12:32 | 50.36945 | 15.53169 | 32826 ft | 473 kts | 122° |
| 2026-05-06 12:32 | 50.34028 | 15.62401 | 32822 ft | 472 kts | 122° |
| 2026-05-06 12:33 | 50.31108 | 15.71606 | 32821 ft | 472 kts | 122° |
| 2026-05-06 12:33 | 50.28176 | 15.80802 | 32818 ft | 472 kts | 122° |
| 2026-05-06 12:34 | 50.25238 | 15.89984 | 32816 ft | 472 kts | 122° |
| 2026-05-06 12:34 | 50.22317 | 15.99093 | 32821 ft | 472 kts | 122° |
| 2026-05-06 12:35 | 50.19372 | 16.08241 | 32820 ft | 472 kts | 122° |
| 2026-05-06 12:35 | 50.16410 | 16.17376 | 32821 ft | 472 kts | 122° |
| 2026-05-06 12:36 | 50.13439 | 16.26512 | 32821 ft | 472 kts | 122° |
| 2026-05-06 12:36 | 50.10472 | 16.35642 | 32821 ft | 472 kts | 122° |
| 2026-05-06 12:37 | 50.07497 | 16.44752 | 32822 ft | 472 kts | 122° |
| 2026-05-06 12:37 | 50.04511 | 16.53856 | 32824 ft | 472 kts | 122° |
| 2026-05-06 12:38 | 50.01522 | 16.62938 | 32826 ft | 472 kts | 122° |
| 2026-05-06 12:38 | 49.98523 | 16.72016 | 32828 ft | 472 kts | 122° |
| 2026-05-06 12:39 | 49.95514 | 16.81070 | 32834 ft | 472 kts | 123° |
| 2026-05-06 12:39 | 49.92493 | 16.90118 | 32829 ft | 472 kts | 122° |
| 2026-05-06 12:40 | 49.89498 | 16.99098 | 32828 ft | 472 kts | 122° |
| 2026-05-06 12:40 | 49.86481 | 17.08119 | 32834 ft | 471 kts | 123° |
| 2026-05-06 12:41 | 49.83451 | 17.17118 | 32833 ft | 471 kts | 123° |
| 2026-05-06 12:41 | 49.80413 | 17.26111 | 32838 ft | 471 kts | 123° |
| 2026-05-06 12:42 | 49.77373 | 17.35102 | 32833 ft | 471 kts | 123° |
| 2026-05-06 12:42 | 49.74331 | 17.44060 | 32837 ft | 470 kts | 123° |
| 2026-05-06 12:43 | 49.71276 | 17.53001 | 32835 ft | 470 kts | 123° |
| 2026-05-06 12:43 | 49.68228 | 17.61891 | 32834 ft | 471 kts | 123° |
| 2026-05-06 12:44 | 49.65159 | 17.70814 | 32833 ft | 471 kts | 123° |
| 2026-05-06 12:44 | 49.62082 | 17.79750 | 32833 ft | 471 kts | 123° |
| 2026-05-06 12:45 | 49.59002 | 17.88668 | 32830 ft | 471 kts | 123° |
| 2026-05-06 12:46 | 49.54356 | 18.02032 | 32831 ft | 472 kts | 123° |
| 2026-05-06 12:46 | 49.51253 | 18.10940 | 32831 ft | 472 kts | 123° |
| 2026-05-06 12:47 | 49.48128 | 18.19841 | 32830 ft | 473 kts | 123° |
| 2026-05-06 12:47 | 49.44998 | 18.28733 | 32824 ft | 473 kts | 123° |
| 2026-05-06 12:48 | 49.41864 | 18.37622 | 32842 ft | 473 kts | 122° |
| 2026-05-06 12:48 | 49.38691 | 18.46470 | 32845 ft | 472 kts | 124° |
| 2026-05-06 12:49 | 49.35180 | 18.54944 | 32854 ft | 470 kts | 128° |
| 2026-05-06 12:49 | 49.31466 | 18.63190 | 32859 ft | 470 kts | 128° |
| 2026-05-06 12:50 | 49.27774 | 18.71475 | 32859 ft | 470 kts | 128° |
| 2026-05-06 12:50 | 49.24157 | 18.79823 | 32865 ft | 471 kts | 127° |
| 2026-05-06 12:51 | 49.20557 | 18.88178 | 32871 ft | 470 kts | 127° |
| 2026-05-06 12:51 | 49.16965 | 18.96440 | 32870 ft | 470 kts | 127° |
| 2026-05-06 12:52 | 49.13324 | 19.04727 | 32889 ft | 470 kts | 127° |
| 2026-05-06 12:52 | 49.09678 | 19.13007 | 32893 ft | 470 kts | 127° |
| 2026-05-06 12:53 | 49.06029 | 19.21268 | 32895 ft | 469 kts | 127° |
| 2026-05-06 12:53 | 49.02374 | 19.29526 | 32911 ft | 469 kts | 127° |
| 2026-05-06 12:54 | 48.98719 | 19.37754 | 32905 ft | 469 kts | 127° |
| 2026-05-06 12:54 | 48.95061 | 19.45963 | 32914 ft | 469 kts | 128° |
| 2026-05-06 12:55 | 48.91400 | 19.54171 | 32913 ft | 469 kts | 127° |
| 2026-05-06 12:55 | 48.87739 | 19.62364 | 32915 ft | 469 kts | 127° |
| 2026-05-06 12:56 | 48.84070 | 19.70551 | 32922 ft | 469 kts | 127° |
| 2026-05-06 12:56 | 48.80386 | 19.78711 | 32929 ft | 469 kts | 128° |
| 2026-05-06 12:57 | 48.76691 | 19.86871 | 32935 ft | 469 kts | 127° |
| 2026-05-06 12:57 | 48.73004 | 19.95019 | 32934 ft | 469 kts | 127° |
| 2026-05-06 12:58 | 48.69330 | 20.03112 | 32934 ft | 469 kts | 127° |
| 2026-05-06 12:58 | 48.65599 | 20.11289 | 32932 ft | 469 kts | 128° |
| 2026-05-06 12:59 | 48.61886 | 20.19401 | 32935 ft | 469 kts | 128° |
| 2026-05-06 12:59 | 48.58170 | 20.27499 | 32927 ft | 469 kts | 128° |
| 2026-05-06 13:00 | 48.54450 | 20.35586 | 32921 ft | 469 kts | 128° |
| 2026-05-06 13:00 | 48.50749 | 20.43604 | 32923 ft | 469 kts | 128° |
| 2026-05-06 13:01 | 48.47282 | 20.51946 | 32921 ft | 472 kts | 120° |
| 2026-05-06 13:01 | 48.44288 | 20.60754 | 32912 ft | 472 kts | 120° |
| 2026-05-06 13:02 | 48.41283 | 20.69554 | 32907 ft | 472 kts | 120° |
| 2026-05-06 13:02 | 48.38269 | 20.78332 | 32913 ft | 473 kts | 120° |
| 2026-05-06 13:03 | 48.35243 | 20.87121 | 32917 ft | 473 kts | 120° |
| 2026-05-06 13:03 | 48.32214 | 20.95887 | 32914 ft | 473 kts | 120° |
| 2026-05-06 13:04 | 48.29177 | 21.04657 | 32912 ft | 473 kts | 120° |
| 2026-05-06 13:04 | 48.26133 | 21.13405 | 32919 ft | 473 kts | 120° |
| 2026-05-06 13:05 | 48.23075 | 21.22139 | 32918 ft | 473 kts | 120° |
| 2026-05-06 13:05 | 48.20016 | 21.30871 | 32931 ft | 473 kts | 120° |
| 2026-05-06 13:06 | 48.16974 | 21.39543 | 32939 ft | 473 kts | 120° |
| 2026-05-06 13:06 | 48.13906 | 21.48256 | 32946 ft | 473 kts | 120° |
| 2026-05-06 13:07 | 48.10824 | 21.56963 | 32945 ft | 473 kts | 120° |
| 2026-05-06 13:07 | 48.07739 | 21.65655 | 32947 ft | 473 kts | 120° |
| 2026-05-06 13:08 | 48.04646 | 21.74348 | 32947 ft | 474 kts | 120° |
| 2026-05-06 13:08 | 48.01542 | 21.83034 | 32956 ft | 474 kts | 120° |
| 2026-05-06 13:09 | 47.98434 | 21.91705 | 32943 ft | 474 kts | 120° |
| 2026-05-06 13:09 | 47.95313 | 22.00380 | 32935 ft | 474 kts | 120° |
| 2026-05-06 13:10 | 47.92184 | 22.09057 | 32949 ft | 475 kts | 120° |
| 2026-05-06 13:10 | 47.89045 | 22.17707 | 32949 ft | 475 kts | 120° |
| 2026-05-06 13:11 | 47.85899 | 22.26360 | 32951 ft | 475 kts | 120° |
| 2026-05-06 13:11 | 47.82766 | 22.34963 | 32954 ft | 475 kts | 120° |
| 2026-05-06 13:12 | 47.79754 | 22.43729 | 32949 ft | 477 kts | 112° |
| 2026-05-06 13:12 | 47.78074 | 22.53278 | 32949 ft | 479 kts | 103° |
| 2026-05-06 13:13 | 47.76674 | 22.62959 | 32948 ft | 479 kts | 103° |
| 2026-05-06 13:13 | 47.75238 | 22.72638 | 32952 ft | 479 kts | 103° |
| 2026-05-06 13:14 | 47.73793 | 22.82313 | 32951 ft | 479 kts | 103° |
| 2026-05-06 13:14 | 47.72357 | 22.91985 | 32956 ft | 480 kts | 102° |
| 2026-05-06 13:15 | 47.71120 | 23.01711 | 32955 ft | 480 kts | 100° |
| 2026-05-06 13:15 | 47.69982 | 23.11482 | 32959 ft | 480 kts | 100° |
| 2026-05-06 13:16 | 47.69072 | 23.19596 | 32958 ft | 480 kts | 98° |
| 2026-05-06 13:16 | 47.68316 | 23.29434 | 32959 ft | 480 kts | 95° |
| 2026-05-06 13:17 | 47.67724 | 23.39288 | 32962 ft | 479 kts | 95° |
| 2026-05-06 13:17 | 47.67068 | 23.49141 | 32960 ft | 479 kts | 96° |
| 2026-05-06 13:18 | 47.66323 | 23.58962 | 32962 ft | 479 kts | 96° |
| 2026-05-06 13:18 | 47.65552 | 23.68782 | 32961 ft | 479 kts | 96° |
| 2026-05-06 13:19 | 47.64794 | 23.78580 | 32964 ft | 478 kts | 96° |
| 2026-05-06 13:19 | 47.63929 | 23.88312 | 32961 ft | 478 kts | 98° |
| 2026-05-06 13:20 | 47.62913 | 23.98050 | 32959 ft | 478 kts | 98° |
| 2026-05-06 13:20 | 47.61871 | 24.07778 | 32962 ft | 477 kts | 98° |
| 2026-05-06 13:21 | 47.60865 | 24.17501 | 32968 ft | 477 kts | 98° |
| 2026-05-06 13:21 | 47.59876 | 24.27222 | 32967 ft | 476 kts | 98° |
| 2026-05-06 13:22 | 47.58868 | 24.36932 | 32977 ft | 476 kts | 98° |
| 2026-05-06 13:22 | 47.57852 | 24.46622 | 32979 ft | 476 kts | 98° |
| 2026-05-06 13:23 | 47.56829 | 24.56296 | 32980 ft | 476 kts | 98° |
| 2026-05-06 13:23 | 47.55791 | 24.65967 | 32986 ft | 475 kts | 98° |
| 2026-05-06 13:24 | 47.54745 | 24.75631 | 32995 ft | 475 kts | 98° |
| 2026-05-06 13:24 | 47.53693 | 24.85284 | 32992 ft | 475 kts | 98° |
| 2026-05-06 13:25 | 47.52640 | 24.94916 | 32842 ft | 472 kts | 98° |
| 2026-05-06 13:25 | 47.52115 | 24.99719 | 32193 ft | 472 kts | 98° |
| 2026-05-06 13:25 | 47.51587 | 25.04511 | 31525 ft | 473 kts | 98° |
| 2026-05-06 13:25 | 47.51053 | 25.09310 | 30842 ft | 474 kts | 98° |
| 2026-05-06 13:26 | 47.50514 | 25.14112 | 30172 ft | 474 kts | 98° |
| 2026-05-06 13:26 | 47.49975 | 25.18923 | 29398 ft | 474 kts | 98° |
| 2026-05-06 13:26 | 47.49434 | 25.23744 | 28551 ft | 475 kts | 98° |
| 2026-05-06 13:26 | 47.48888 | 25.28571 | 27718 ft | 477 kts | 99° |
| 2026-05-06 13:27 | 47.48339 | 25.33409 | 26863 ft | 478 kts | 99° |
| 2026-05-06 13:27 | 47.47788 | 25.38269 | 26007 ft | 480 kts | 99° |
| 2026-05-06 13:27 | 47.47232 | 25.43139 | 25156 ft | 481 kts | 99° |
| 2026-05-06 13:27 | 47.46670 | 25.48024 | 24398 ft | 482 kts | 99° |
| 2026-05-06 13:28 | 47.46107 | 25.52896 | 24103 ft | 481 kts | 99° |
| 2026-05-06 13:28 | 47.45551 | 25.57714 | 23918 ft | 480 kts | 99° |
| 2026-05-06 13:28 | 47.44990 | 25.62573 | 23962 ft | 480 kts | 99° |
| 2026-05-06 13:28 | 47.44428 | 25.67450 | 23953 ft | 481 kts | 99° |
| 2026-05-06 13:29 | 47.43864 | 25.72311 | 23953 ft | 481 kts | 99° |
| 2026-05-06 13:29 | 47.43295 | 25.77177 | 23956 ft | 480 kts | 99° |
| 2026-05-06 13:29 | 47.42721 | 25.82040 | 23943 ft | 480 kts | 99° |
| 2026-05-06 13:29 | 47.42143 | 25.86901 | 23945 ft | 480 kts | 100° |
| 2026-05-06 13:30 | 47.41563 | 25.91757 | 23961 ft | 480 kts | 100° |
| 2026-05-06 13:30 | 47.40982 | 25.96606 | 23948 ft | 479 kts | 100° |
| 2026-05-06 13:30 | 47.40401 | 26.01446 | 23954 ft | 478 kts | 100° |
| 2026-05-06 13:30 | 47.39821 | 26.06277 | 23955 ft | 478 kts | 100° |
| 2026-05-06 13:31 | 47.39241 | 26.11107 | 23951 ft | 477 kts | 100° |
| 2026-05-06 13:31 | 47.38661 | 26.15923 | 23948 ft | 476 kts | 100° |
| 2026-05-06 13:31 | 47.38079 | 26.20725 | 23955 ft | 475 kts | 100° |
| 2026-05-06 13:31 | 47.37503 | 26.25462 | 23954 ft | 475 kts | 100° |
| 2026-05-06 13:32 | 47.36919 | 26.30254 | 23952 ft | 475 kts | 100° |
| 2026-05-06 13:32 | 47.36325 | 26.35107 | 23959 ft | 474 kts | 100° |
| 2026-05-06 13:32 | 47.35743 | 26.39831 | 23952 ft | 474 kts | 100° |
| 2026-05-06 13:32 | 47.35153 | 26.44609 | 23957 ft | 473 kts | 100° |
| 2026-05-06 13:33 | 47.34561 | 26.49369 | 23957 ft | 472 kts | 100° |
| 2026-05-06 13:33 | 47.33967 | 26.54127 | 23948 ft | 472 kts | 100° |
| 2026-05-06 13:33 | 47.33371 | 26.58876 | 23955 ft | 471 kts | 100° |
| 2026-05-06 13:33 | 47.32777 | 26.63625 | 23959 ft | 470 kts | 100° |
| 2026-05-06 13:34 | 47.32179 | 26.68356 | 23952 ft | 470 kts | 100° |
| 2026-05-06 13:34 | 47.31581 | 26.73089 | 23950 ft | 469 kts | 100° |
| 2026-05-06 13:34 | 47.30984 | 26.77817 | 23961 ft | 469 kts | 100° |
| 2026-05-06 13:34 | 47.30388 | 26.82542 | 23958 ft | 469 kts | 100° |
| 2026-05-06 13:35 | 47.29787 | 26.87261 | 23966 ft | 468 kts | 100° |
| 2026-05-06 13:35 | 47.29183 | 26.91969 | 23964 ft | 468 kts | 100° |
| 2026-05-06 13:35 | 47.28575 | 26.96675 | 23963 ft | 467 kts | 100° |
| 2026-05-06 13:35 | 47.27965 | 27.01376 | 23960 ft | 467 kts | 100° |
| 2026-05-06 13:36 | 47.27357 | 27.06067 | 23963 ft | 466 kts | 100° |
| 2026-05-06 13:36 | 47.26751 | 27.10749 | 23971 ft | 465 kts | 100° |
| 2026-05-06 13:36 | 47.26144 | 27.15430 | 23971 ft | 465 kts | 99° |
| 2026-05-06 13:36 | 47.25535 | 27.20096 | 23973 ft | 464 kts | 100° |
| 2026-05-06 13:37 | 47.24925 | 27.24767 | 23971 ft | 464 kts | 99° |
| 2026-05-06 13:37 | 47.24314 | 27.29419 | 23978 ft | 464 kts | 100° |
| 2026-05-06 13:37 | 47.23695 | 27.34090 | 23975 ft | 464 kts | 100° |
| 2026-05-06 13:37 | 47.23077 | 27.38744 | 23977 ft | 464 kts | 100° |
| 2026-05-06 13:38 | 47.22466 | 27.43347 | 23967 ft | 464 kts | 99° |
| 2026-05-06 13:38 | 47.21847 | 27.48002 | 23969 ft | 464 kts | 99° |
| 2026-05-06 13:38 | 47.21225 | 27.52661 | 23976 ft | 464 kts | 99° |
| 2026-05-06 13:38 | 47.20603 | 27.57316 | 23978 ft | 464 kts | 99° |
| 2026-05-06 13:39 | 47.19978 | 27.61970 | 23977 ft | 464 kts | 100° |
| 2026-05-06 13:39 | 47.19353 | 27.66621 | 23973 ft | 464 kts | 99° |
| 2026-05-06 13:39 | 47.18725 | 27.71267 | 23981 ft | 464 kts | 99° |
| 2026-05-06 13:39 | 47.18092 | 27.75915 | 23975 ft | 464 kts | 99° |
| 2026-05-06 13:40 | 47.17456 | 27.80567 | 23970 ft | 464 kts | 100° |
| 2026-05-06 13:40 | 47.16968 | 27.85244 | 23978 ft | 463 kts | 93° |
| 2026-05-06 13:40 | 47.16931 | 27.89960 | 23977 ft | 461 kts | 86° |
| 2026-05-06 13:40 | 47.17049 | 27.94675 | 23983 ft | 461 kts | 86° |
| 2026-05-06 13:41 | 47.17158 | 27.99388 | 23988 ft | 461 kts | 86° |
| 2026-05-06 13:41 | 47.17258 | 28.04095 | 23990 ft | 461 kts | 87° |
| 2026-05-06 13:41 | 47.17353 | 28.08802 | 23861 ft | 459 kts | 86° |
| 2026-05-06 13:41 | 47.17446 | 28.13454 | 23185 ft | 453 kts | 87° |
| 2026-05-06 13:42 | 47.17535 | 28.18054 | 22434 ft | 448 kts | 87° |
| 2026-05-06 13:42 | 47.17625 | 28.22604 | 21728 ft | 443 kts | 87° |
| 2026-05-06 13:42 | 47.17712 | 28.27108 | 21050 ft | 438 kts | 87° |
| 2026-05-06 13:42 | 47.17797 | 28.31563 | 20371 ft | 434 kts | 87° |
| 2026-05-06 13:43 | 47.17881 | 28.35977 | 19704 ft | 430 kts | 87° |
| 2026-05-06 13:43 | 47.17965 | 28.40345 | 19063 ft | 426 kts | 87° |
| 2026-05-06 13:43 | 47.18046 | 28.44672 | 18420 ft | 421 kts | 87° |
| 2026-05-06 13:43 | 47.18122 | 28.48899 | 17719 ft | 417 kts | 87° |
| 2026-05-06 13:44 | 47.18194 | 28.53141 | 17022 ft | 413 kts | 87° |
| 2026-05-06 13:44 | 47.18261 | 28.57349 | 16360 ft | 409 kts | 88° |
| 2026-05-06 13:44 | 47.18327 | 28.61496 | 16008 ft | 399 kts | 88° |
| 2026-05-06 13:44 | 47.18391 | 28.65503 | 15878 ft | 385 kts | 87° |
| 2026-05-06 13:45 | 47.18454 | 28.69361 | 15750 ft | 371 kts | 87° |
| 2026-05-06 13:45 | 47.18565 | 28.76658 | 15503 ft | 344 kts | 87° |
| 2026-05-06 13:45 | 47.18614 | 28.80108 | 15375 ft | 331 kts | 87° |
| 2026-05-06 13:46 | 47.18663 | 28.83435 | 15253 ft | 320 kts | 87° |
| 2026-05-06 13:46 | 47.18711 | 28.86646 | 15125 ft | 309 kts | 87° |
| 2026-05-06 13:46 | 47.18753 | 28.89831 | 14379 ft | 319 kts | 88° |
| 2026-05-06 13:46 | 47.18798 | 28.93166 | 13421 ft | 334 kts | 88° |
| 2026-05-06 13:47 | 47.18850 | 28.96653 | 12333 ft | 349 kts | 88° |
| 2026-05-06 13:47 | 47.18913 | 29.00287 | 11220 ft | 363 kts | 88° |
| 2026-05-06 13:47 | 47.18986 | 29.04043 | 10439 ft | 369 kts | 88° |
| 2026-05-06 13:47 | 47.19060 | 29.07766 | 10157 ft | 357 kts | 88° |
| 2026-05-06 13:48 | 47.19128 | 29.11340 | 10011 ft | 342 kts | 88° |
| 2026-05-06 13:48 | 47.19189 | 29.14747 | 9995 ft | 324 kts | 88° |
| 2026-05-06 13:48 | 47.19243 | 29.17968 | 10010 ft | 306 kts | 87° |
| 2026-05-06 13:48 | 47.19288 | 29.21011 | 10003 ft | 290 kts | 88° |
| 2026-05-06 13:49 | 47.19328 | 29.23913 | 10013 ft | 280 kts | 87° |
| 2026-05-06 13:49 | 47.19366 | 29.26766 | 10006 ft | 278 kts | 88° |
| 2026-05-06 13:49 | 47.19400 | 29.29610 | 10011 ft | 278 kts | 88° |
| 2026-05-06 13:49 | 47.19435 | 29.32456 | 10008 ft | 278 kts | 87° |
| 2026-05-06 13:50 | 47.19470 | 29.35297 | 10014 ft | 278 kts | 88° |
| 2026-05-06 13:50 | 47.19504 | 29.38152 | 10006 ft | 278 kts | 88° |
| 2026-05-06 13:50 | 47.19538 | 29.40994 | 10010 ft | 279 kts | 88° |
| 2026-05-06 13:50 | 47.19571 | 29.43840 | 10007 ft | 279 kts | 88° |
| 2026-05-06 13:51 | 47.19606 | 29.46692 | 10010 ft | 279 kts | 88° |
| 2026-05-06 13:51 | 47.19638 | 29.49544 | 10010 ft | 279 kts | 88° |
| 2026-05-06 13:51 | 47.19670 | 29.52395 | 10012 ft | 279 kts | 88° |
| 2026-05-06 13:51 | 47.19699 | 29.55213 | 10008 ft | 279 kts | 88° |
| 2026-05-06 13:52 | 47.19729 | 29.58070 | 10012 ft | 279 kts | 88° |
| 2026-05-06 13:52 | 47.19757 | 29.60927 | 10014 ft | 279 kts | 88° |
| 2026-05-06 13:52 | 47.19784 | 29.63780 | 10010 ft | 279 kts | 88° |
| 2026-05-06 13:52 | 47.19810 | 29.66639 | 10015 ft | 280 kts | 88° |
| 2026-05-06 13:53 | 47.19834 | 29.69498 | 10018 ft | 280 kts | 88° |
| 2026-05-06 13:53 | 47.19857 | 29.72361 | 10014 ft | 279 kts | 87° |
| 2026-05-06 13:53 | 47.19875 | 29.75216 | 10019 ft | 280 kts | 88° |
| 2026-05-06 13:53 | 47.19898 | 29.78082 | 10015 ft | 280 kts | 88° |
| 2026-05-06 13:54 | 47.19920 | 29.80948 | 10011 ft | 280 kts | 88° |
| 2026-05-06 13:54 | 47.19945 | 29.83808 | 10022 ft | 280 kts | 88° |
| 2026-05-06 13:54 | 47.19971 | 29.86672 | 10022 ft | 280 kts | 88° |
| 2026-05-06 13:54 | 47.19997 | 29.89541 | 10015 ft | 280 kts | 88° |
| 2026-05-06 13:55 | 47.20025 | 29.92409 | 10013 ft | 281 kts | 88° |
| 2026-05-06 13:55 | 47.20051 | 29.95284 | 10021 ft | 281 kts | 88° |
| 2026-05-06 13:55 | 47.20080 | 29.98152 | 10015 ft | 280 kts | 88° |
| 2026-05-06 13:55 | 47.20108 | 30.01024 | 10015 ft | 281 kts | 88° |
| 2026-05-06 13:56 | 47.20137 | 30.03894 | 10014 ft | 281 kts | 88° |
| 2026-05-06 13:56 | 47.20166 | 30.06774 | 10027 ft | 282 kts | 88° |
| 2026-05-06 13:56 | 47.20196 | 30.09657 | 10022 ft | 282 kts | 88° |
| 2026-05-06 13:56 | 47.20223 | 30.12537 | 10021 ft | 282 kts | 88° |
| 2026-05-06 13:57 | 47.20249 | 30.15419 | 10021 ft | 282 kts | 88° |
| 2026-05-06 13:57 | 47.20276 | 30.18309 | 10019 ft | 282 kts | 88° |
| 2026-05-06 13:57 | 47.20302 | 30.21192 | 10021 ft | 282 kts | 88° |
| 2026-05-06 13:57 | 47.20328 | 30.24075 | 10019 ft | 282 kts | 88° |
| 2026-05-06 13:58 | 47.20353 | 30.26958 | 10020 ft | 282 kts | 88° |
| 2026-05-06 13:58 | 47.20376 | 30.29853 | 10024 ft | 283 kts | 88° |
| 2026-05-06 13:58 | 47.20402 | 30.32703 | 10022 ft | 283 kts | 88° |
| 2026-05-06 13:58 | 47.20428 | 30.35593 | 10018 ft | 283 kts | 88° |
| 2026-05-06 13:59 | 47.20457 | 30.38523 | 10020 ft | 283 kts | 88° |
| 2026-05-06 13:59 | 47.20486 | 30.41377 | 10020 ft | 283 kts | 88° |
| 2026-05-06 13:59 | 47.20516 | 30.44276 | 10016 ft | 283 kts | 88° |
| 2026-05-06 13:59 | 47.20547 | 30.47177 | 10020 ft | 284 kts | 88° |
| 2026-05-06 14:00 | 47.20577 | 30.50081 | 10016 ft | 283 kts | 88° |
| 2026-05-06 14:00 | 47.20606 | 30.52984 | 10020 ft | 284 kts | 88° |
| 2026-05-06 14:00 | 47.20637 | 30.55884 | 10017 ft | 284 kts | 88° |
| 2026-05-06 14:00 | 47.20666 | 30.58783 | 10022 ft | 284 kts | 88° |
| 2026-05-06 14:01 | 47.20694 | 30.61685 | 10022 ft | 284 kts | 88° |
| 2026-05-06 14:01 | 47.20722 | 30.64587 | 10019 ft | 284 kts | 88° |
| 2026-05-06 14:01 | 47.20750 | 30.67489 | 10013 ft | 284 kts | 88° |
| 2026-05-06 14:01 | 47.20779 | 30.70386 | 10015 ft | 284 kts | 88° |
| 2026-05-06 14:02 | 47.20798 | 30.72305 | 10018 ft | 284 kts | 88° |
| 2026-05-06 14:02 | 47.20828 | 30.75208 | 10017 ft | 284 kts | 88° |
| 2026-05-06 14:02 | 47.20857 | 30.78107 | 10017 ft | 284 kts | 88° |
| 2026-05-06 14:02 | 47.20887 | 30.81006 | 10017 ft | 284 kts | 88° |
| 2026-05-06 14:03 | 47.20916 | 30.83909 | 10020 ft | 284 kts | 88° |
| 2026-05-06 14:03 | 47.20945 | 30.86812 | 10019 ft | 284 kts | 88° |
| 2026-05-06 14:03 | 47.20973 | 30.89711 | 10017 ft | 284 kts | 88° |
| 2026-05-06 14:03 | 47.20996 | 30.92612 | 10017 ft | 284 kts | 88° |
| 2026-05-06 14:04 | 47.21016 | 30.95514 | 10016 ft | 284 kts | 88° |
| 2026-05-06 14:04 | 47.21034 | 30.98416 | 10019 ft | 284 kts | 88° |
| 2026-05-06 14:04 | 47.21048 | 31.01317 | 10021 ft | 284 kts | 88° |
| 2026-05-06 14:04 | 47.21060 | 31.04216 | 10021 ft | 284 kts | 88° |
| 2026-05-06 14:05 | 47.21069 | 31.07120 | 10019 ft | 283 kts | 88° |
| 2026-05-06 14:05 | 47.21074 | 31.10027 | 10018 ft | 284 kts | 88° |
| 2026-05-06 14:05 | 47.21074 | 31.12923 | 10020 ft | 283 kts | 88° |
| 2026-05-06 14:05 | 47.21073 | 31.15825 | 10022 ft | 283 kts | 88° |
| 2026-05-06 14:06 | 47.21071 | 31.18720 | 10021 ft | 284 kts | 88° |
| 2026-05-06 14:06 | 47.21067 | 31.21620 | 10022 ft | 283 kts | 88° |
| 2026-05-06 14:06 | 47.21063 | 31.24516 | 10024 ft | 283 kts | 88° |
| 2026-05-06 14:06 | 47.21054 | 31.27415 | 10023 ft | 283 kts | 88° |
| 2026-05-06 14:07 | 47.21044 | 31.30278 | 10023 ft | 284 kts | 88° |
| 2026-05-06 14:07 | 47.21030 | 31.33182 | 10023 ft | 283 kts | 88° |
| 2026-05-06 14:07 | 47.21014 | 31.36078 | 10025 ft | 284 kts | 88° |
| 2026-05-06 14:07 | 47.20997 | 31.38977 | 10025 ft | 283 kts | 88° |
| 2026-05-06 14:08 | 47.20980 | 31.41872 | 10023 ft | 283 kts | 88° |
| 2026-05-06 14:08 | 47.20962 | 31.44771 | 10024 ft | 283 kts | 88° |
| 2026-05-06 14:08 | 47.20943 | 31.47670 | 10024 ft | 284 kts | 88° |
| 2026-05-06 14:08 | 47.20922 | 31.50574 | 10027 ft | 284 kts | 88° |
| 2026-05-06 14:09 | 47.20898 | 31.53475 | 10029 ft | 284 kts | 88° |
| 2026-05-06 14:09 | 47.20872 | 31.56376 | 10025 ft | 284 kts | 88° |
| 2026-05-06 14:09 | 47.20844 | 31.59269 | 10026 ft | 283 kts | 88° |
| 2026-05-06 14:09 | 47.20816 | 31.62162 | 10028 ft | 283 kts | 88° |
| 2026-05-06 14:10 | 47.20786 | 31.65058 | 10026 ft | 283 kts | 88° |
| 2026-05-06 14:10 | 47.20754 | 31.67953 | 10030 ft | 283 kts | 88° |
| 2026-05-06 14:10 | 47.20720 | 31.70856 | 10030 ft | 283 kts | 88° |
| 2026-05-06 14:10 | 47.20686 | 31.73748 | 10031 ft | 283 kts | 88° |
| 2026-05-06 14:11 | 47.20652 | 31.76636 | 10031 ft | 283 kts | 88° |
| 2026-05-06 14:11 | 47.20613 | 31.79536 | 10026 ft | 283 kts | 88° |
| 2026-05-06 14:11 | 47.20572 | 31.82425 | 10028 ft | 283 kts | 88° |
| 2026-05-06 14:11 | 47.20532 | 31.85317 | 10027 ft | 283 kts | 88° |
| 2026-05-06 14:12 | 47.20486 | 31.88211 | 10026 ft | 282 kts | 88° |
| 2026-05-06 14:12 | 47.20438 | 31.91062 | 10029 ft | 283 kts | 88° |
| 2026-05-06 14:12 | 47.20388 | 31.93956 | 10029 ft | 283 kts | 88° |
| 2026-05-06 14:12 | 47.20342 | 31.96848 | 10028 ft | 282 kts | 88° |
| 2026-05-06 14:13 | 47.20294 | 31.99736 | 10032 ft | 283 kts | 88° |
| 2026-05-06 14:13 | 47.20244 | 32.02622 | 10029 ft | 282 kts | 88° |
| 2026-05-06 14:13 | 47.20196 | 32.05509 | 10032 ft | 282 kts | 88° |
| 2026-05-06 14:13 | 47.20150 | 32.08393 | 10035 ft | 282 kts | 88° |
| 2026-05-06 14:14 | 47.20106 | 32.11278 | 10029 ft | 282 kts | 88° |
| 2026-05-06 14:14 | 47.20063 | 32.14167 | 10034 ft | 282 kts | 88° |
| 2026-05-06 14:14 | 47.20021 | 32.17051 | 10035 ft | 282 kts | 88° |
| 2026-05-06 14:14 | 47.19979 | 32.19942 | 10035 ft | 282 kts | 88° |
| 2026-05-06 14:15 | 47.19938 | 32.22825 | 10036 ft | 282 kts | 88° |
| 2026-05-06 14:15 | 47.19897 | 32.25711 | 10033 ft | 282 kts | 88° |
| 2026-05-06 14:15 | 47.19894 | 32.25898 | 10036 ft | 282 kts | 88° |
| 2026-05-06 14:16 | 47.19876 | 32.27940 | 10030 ft | 282 kts | 89° |
| 2026-05-06 14:16 | 47.19522 | 32.30786 | 10035 ft | 287 kts | 109° |
| 2026-05-06 14:16 | 47.18416 | 32.33246 | 10034 ft | 294 kts | 134° |
| 2026-05-06 14:17 | 47.16687 | 32.34806 | 10037 ft | 300 kts | 160° |
| 2026-05-06 14:17 | 47.14609 | 32.35134 | 10037 ft | 305 kts | 187° |
| 2026-05-06 14:17 | 47.12616 | 32.34110 | 10035 ft | 306 kts | 214° |
| 2026-05-06 14:17 | 47.11122 | 32.31923 | 10045 ft | 305 kts | 241° |
| 2026-05-06 14:18 | 47.10425 | 32.29032 | 10044 ft | 300 kts | 267° |
| 2026-05-06 14:18 | 47.10280 | 32.25969 | 10046 ft | 301 kts | 269° |
| 2026-05-06 14:18 | 47.10155 | 32.22902 | 10045 ft | 301 kts | 269° |
| 2026-05-06 14:18 | 47.10033 | 32.19841 | 10041 ft | 301 kts | 269° |